Time;durP1;ratioP1;P1;durP2;ratioP2;P2;SDS_P1;SDS_P2;PMS_P1;PMS_P2;Temp;Humidity;BMP_temperature;BMP_pressure;BME280_temperature;BME280_humidity;BME280_pressure;Samples;Min_cycle;Max_cycle;Signal;HPM_P1;HPM_P2
2022/12/13 00:01:14;;;;;;;26.00;14.23;;;-0.80;99.90;;;;;;4968077;28;20051;-62
2022/12/13 00:03:41;;;;;;;26.98;13.90;;;-0.80;99.90;;;;;;4968695;28;20086;-61
2022/12/13 00:06:09;;;;;;;24.35;12.45;;;-0.80;99.90;;;;;;4968471;28;20466;-61
2022/12/13 00:08:36;;;;;;;24.65;13.43;;;-0.90;99.90;;;;;;4964171;28;20078;-61
2022/12/13 00:11:05;;;;;;;23.15;13.00;;;-0.90;99.90;;;;;;4969344;28;20061;-61
2022/12/13 00:13:32;;;;;;;26.30;14.60;;;-1.00;99.90;;;;;;4968440;28;20163;-60
2022/12/13 00:16:00;;;;;;;29.58;15.77;;;-1.00;99.90;;;;;;4984134;28;20158;-62
2022/12/13 00:18:27;;;;;;;29.33;14.70;;;-1.00;99.90;;;;;;4969041;28;20167;-60
2022/12/13 00:20:54;;;;;;;27.05;14.20;;;-1.00;99.90;;;;;;4972794;28;20125;-62
2022/12/13 00:23:21;;;;;;;24.33;12.93;;;-1.00;99.90;;;;;;4972623;28;20062;-61
2022/12/13 00:25:48;;;;;;;26.77;13.75;;;-1.00;99.90;;;;;;4972425;28;20241;-61
2022/12/13 00:28:15;;;;;;;23.95;13.75;;;-1.00;99.90;;;;;;4972482;28;20134;-61
2022/12/13 00:30:42;;;;;;;28.58;14.48;;;-1.00;99.90;;;;;;4971415;28;20074;-61
2022/12/13 00:33:09;;;;;;;25.83;13.07;;;-1.10;99.90;;;;;;4972156;28;20541;-61
2022/12/13 00:35:40;;;;;;;26.73;13.85;;;-1.00;99.90;;;;;;4972796;28;20097;-60
2022/12/13 00:38:07;;;;;;;25.42;14.68;;;-1.00;99.90;;;;;;4971759;28;20082;-60
2022/12/13 00:40:33;;;;;;;28.95;14.10;;;-1.10;99.90;;;;;;4971167;28;20129;-60
2022/12/13 00:43:00;;;;;;;28.25;15.05;;;-1.10;99.90;;;;;;4972122;28;20053;-61
2022/12/13 00:45:27;;;;;;;29.55;16.75;;;-1.10;99.90;;;;;;4971883;28;20161;-61
2022/12/13 00:47:54;;;;;;;34.38;18.20;;;-1.10;99.90;;;;;;4627817;28;9999918;-61
2022/12/13 00:50:21;;;;;;;27.80;14.25;;;-1.10;99.90;;;;;;4969517;28;20059;-61
2022/12/13 00:52:48;;;;;;;31.58;15.35;;;-1.10;99.90;;;;;;4971049;28;20054;-61
2022/12/13 00:55:14;;;;;;;30.42;15.93;;;-1.10;99.90;;;;;;4986755;28;20051;-61
2022/12/13 00:57:42;;;;;;;30.80;13.18;;;-1.10;99.90;;;;;;4972275;28;20133;-61
2022/12/13 01:00:09;;;;;;;30.00;14.70;;;-1.10;99.90;;;;;;4970764;28;20086;-61
2022/12/13 01:02:36;;;;;;;27.38;15.48;;;-1.10;99.90;;;;;;4971242;28;20051;-61
2022/12/13 01:05:03;;;;;;;31.15;15.35;;;-1.10;99.90;;;;;;4971693;28;20484;-62
2022/12/13 01:07:30;;;;;;;29.55;14.50;;;-1.10;99.90;;;;;;4972228;28;20145;-61
2022/12/13 01:09:57;;;;;;;30.20;15.43;;;-1.10;99.90;;;;;;4971929;28;20047;-61
2022/12/13 01:12:24;;;;;;;30.88;15.48;;;-1.10;99.90;;;;;;4972221;28;20055;-61
2022/12/13 01:14:50;;;;;;;28.58;15.43;;;-1.10;99.90;;;;;;4972022;28;20050;-60
2022/12/13 01:17:21;;;;;;;29.10;14.32;;;-1.10;99.90;;;;;;4971534;28;20125;-61
2022/12/13 01:19:48;;;;;;;32.20;16.27;;;-1.10;99.90;;;;;;4971085;28;20078;-61
2022/12/13 01:22:15;;;;;;;33.55;16.67;;;-1.10;99.90;;;;;;4971113;28;20333;-60
2022/12/13 01:24:44;;;;;;;33.58;17.42;;;-0.70;99.90;;;;;;4970876;28;20448;-60
2022/12/13 01:27:11;;;;;;;31.10;15.88;;;-1.10;99.90;;;;;;4971347;28;20061;-65
2022/12/13 01:29:38;;;;;;;30.95;14.98;;;-1.10;99.90;;;;;;4970897;28;20130;-61
2022/12/13 01:32:05;;;;;;;30.42;15.68;;;-1.10;99.90;;;;;;4969980;28;20061;-60
2022/12/13 01:34:32;;;;;;;34.25;15.77;;;-1.10;99.90;;;;;;4971301;28;20618;-61
2022/12/13 01:36:58;;;;;;;29.50;15.15;;;-1.10;99.90;;;;;;4971258;28;20078;-61
2022/12/13 01:39:25;;;;;;;31.33;15.88;;;-1.10;99.90;;;;;;4970936;28;20916;-61
2022/12/13 01:41:58;;;;;;;36.42;17.08;;;-1.10;99.90;;;;;;4969476;28;20129;-62
2022/12/13 01:44:56;;;;;;;29.42;14.77;;;-1.10;99.90;;;;;;4970749;28;20047;-61
2022/12/13 01:47:47;;;;;;;38.40;17.48;;;-1.10;99.90;;;;;;4970673;28;20271;-61
2022/12/13 01:50:20;;;;;;;34.65;15.15;;;-1.20;99.90;;;;;;4970493;28;20093;-61
2022/12/13 01:52:47;;;;;;;28.63;14.82;;;-1.20;99.90;;;;;;4971228;28;20562;-63
2022/12/13 01:55:14;;;;;;;31.38;16.77;;;-1.20;99.90;;;;;;4970811;28;20046;-62
2022/12/13 01:57:42;;;;;;;29.25;16.02;;;-1.20;99.90;;;;;;4970065;28;20051;-61
2022/12/13 02:00:12;;;;;;;34.83;15.70;;;-1.20;99.90;;;;;;4968906;28;20046;-61
2022/12/13 02:02:39;;;;;;;31.88;15.82;;;-1.10;99.90;;;;;;4964342;28;20236;-61
2022/12/13 02:05:14;;;;;;;36.88;17.88;;;-1.10;99.90;;;;;;4951518;28;20082;-61
2022/12/13 02:07:42;;;;;;;35.75;17.15;;;-1.20;99.90;;;;;;4971000;28;20078;-60
2022/12/13 02:10:09;;;;;;;32.38;14.40;;;-1.20;99.90;;;;;;4969961;28;20086;-61
2022/12/13 02:12:36;;;;;;;36.67;18.23;;;-1.20;99.90;;;;;;4971044;28;20455;-61
2022/12/13 02:15:13;;;;;;;33.03;17.67;;;-1.20;99.90;;;;;;4971389;28;20051;-61
2022/12/13 02:18:13;;;;;;;33.50;15.43;;;-1.20;99.90;;;;;;4968982;28;20122;-61
2022/12/13 02:20:39;;;;;;;33.63;16.90;;;-1.20;99.90;;;;;;4969343;28;20246;-61
2022/12/13 02:23:17;;;;;;;35.42;16.70;;;-1.20;99.90;;;;;;4970492;28;20097;-61
2022/12/13 02:25:59;;;;;;;32.72;15.60;;;-1.20;99.90;;;;;;4969531;28;20051;-60
2022/12/13 02:28:44;;;;;;;37.90;16.75;;;-1.20;99.90;;;;;;4959860;28;20058;-61
2022/12/13 02:31:23;;;;;;;28.80;14.35;;;-1.30;99.90;;;;;;4970054;28;20348;-61
2022/12/13 02:34:09;;;;;;;33.92;15.93;;;-1.30;99.90;;;;;;4957218;28;20406;-61
2022/12/13 02:37:03;;;;;;;31.05;15.43;;;-1.40;99.90;;;;;;4968228;28;20066;-64
2022/12/13 02:39:53;;;;;;;32.58;15.90;;;-1.40;99.90;;;;;;4969285;28;20134;-60
2022/12/13 02:42:30;;;;;;;29.02;15.60;;;-1.40;99.90;;;;;;4968389;28;20134;-61
2022/12/13 02:45:10;;;;;;;28.70;15.27;;;-1.40;99.90;;;;;;4970873;28;20130;-60
2022/12/13 02:47:45;;;;;;;29.95;14.80;;;-1.40;99.90;;;;;;4969321;28;20064;-60
2022/12/13 02:50:12;;;;;;;30.88;16.33;;;-1.40;99.90;;;;;;4965127;28;20055;-60
2022/12/13 02:52:41;;;;;;;31.50;15.07;;;-1.40;99.90;;;;;;4960204;28;20046;-60
2022/12/13 02:55:11;;;;;;;36.67;16.33;;;-1.40;99.90;;;;;;4970363;28;20051;-59
2022/12/13 02:57:43;;;;;;;27.70;14.95;;;-1.40;99.90;;;;;;4971428;28;20406;-60
2022/12/13 03:00:22;;;;;;;26.40;13.95;;;-1.40;99.90;;;;;;4971713;28;20113;-60
2022/12/13 03:03:04;;;;;;;33.78;15.00;;;-1.50;99.90;;;;;;4970140;28;20085;-60
2022/12/13 03:08:45;;;;;;;31.17;15.23;;;-1.50;99.90;;;;;;4969186;28;20446;-60
2022/12/13 03:11:17;;;;;;;31.52;14.05;;;-1.60;99.90;;;;;;4952857;28;20051;-60
2022/12/13 03:13:52;;;;;;;27.13;13.27;;;-1.60;99.90;;;;;;4962490;28;20050;-60
2022/12/13 03:16:22;;;;;;;35.08;14.98;;;-1.60;99.90;;;;;;4968520;28;20129;-60
2022/12/13 03:18:53;;;;;;;33.72;15.15;;;-1.60;99.90;;;;;;4969255;28;20050;-62
2022/12/13 03:21:19;;;;;;;31.55;15.65;;;-1.70;99.90;;;;;;4968679;28;20158;-60
2022/12/13 03:23:46;;;;;;;28.17;14.00;;;-1.60;99.90;;;;;;4968767;28;20057;-61
2022/12/13 03:26:15;;;;;;;34.15;15.00;;;-1.80;99.90;;;;;;4969545;28;20078;-61
2022/12/13 03:28:42;;;;;;;23.80;13.35;;;-1.80;99.90;;;;;;4967777;28;20129;-61
2022/12/13 03:31:09;;;;;;;28.60;13.93;;;-1.80;99.90;;;;;;4963421;28;20054;-61
2022/12/13 03:33:37;;;;;;;30.42;14.30;;;-1.80;99.90;;;;;;4918014;28;1108961;-61
2022/12/13 03:36:04;;;;;;;26.10;12.82;;;-1.80;99.90;;;;;;4969903;28;20051;-61
2022/12/13 03:38:31;;;;;;;31.02;14.43;;;-1.80;99.90;;;;;;4968197;28;20089;-61
2022/12/13 03:41:01;;;;;;;29.65;13.10;;;-1.80;99.90;;;;;;4969201;28;20050;-62
2022/12/13 03:43:28;;;;;;;31.35;14.27;;;-1.80;99.90;;;;;;4968182;28;20126;-61
2022/12/13 03:45:55;;;;;;;25.92;13.20;;;-1.80;99.90;;;;;;4965335;28;20597;-61
2022/12/13 03:48:22;;;;;;;29.10;13.30;;;-1.90;99.90;;;;;;4950925;28;20476;-61
2022/12/13 03:50:50;;;;;;;28.83;14.88;;;-1.90;99.90;;;;;;4983269;28;20089;-61
2022/12/13 03:53:17;;;;;;;26.33;12.65;;;-1.90;99.90;;;;;;4969096;28;20043;-59
2022/12/13 03:55:59;;;;;;;31.23;14.30;;;-1.80;99.90;;;;;;4968973;28;20042;-61
2022/12/13 03:58:27;;;;;;;27.33;13.18;;;-1.90;99.90;;;;;;4969429;28;20556;-62
2022/12/13 04:01:07;;;;;;;27.60;13.15;;;-1.90;99.90;;;;;;4968813;28;20047;-61
2022/12/13 04:03:35;;;;;;;27.77;13.25;;;-1.90;99.90;;;;;;4967394;28;20051;-61
2022/12/13 04:06:02;;;;;;;32.97;14.15;;;-1.90;99.90;;;;;;4967048;28;20047;-61
2022/12/13 04:08:29;;;;;;;25.65;11.73;;;-1.90;99.90;;;;;;4984394;28;20047;-62
2022/12/13 04:10:56;;;;;;;34.95;15.93;;;-2.00;99.90;;;;;;4969048;28;20051;-61
2022/12/13 04:13:31;;;;;;;26.90;14.10;;;-1.90;99.90;;;;;;4969379;28;20130;-61
2022/12/13 04:15:59;;;;;;;24.23;12.30;;;-1.90;99.90;;;;;;4969051;28;20395;-61
2022/12/13 04:18:26;;;;;;;29.67;12.45;;;-1.90;99.90;;;;;;4968365;28;20058;-61
2022/12/13 04:20:53;;;;;;;22.83;11.35;;;-1.90;99.90;;;;;;4967884;28;20138;-60
2022/12/13 04:23:19;;;;;;;22.98;11.68;;;-1.90;99.90;;;;;;4969694;28;20086;-61
2022/12/13 04:25:46;;;;;;;19.52;9.98;;;-1.90;99.90;;;;;;4968972;28;20126;-61
2022/12/13 04:28:13;;;;;;;22.30;11.07;;;-1.80;99.90;;;;;;4967146;28;20097;-61
2022/12/13 04:30:51;;;;;;;25.88;11.50;;;-1.90;99.90;;;;;;4966191;28;20118;-61
2022/12/13 04:33:22;;;;;;;19.33;9.55;;;-1.90;99.90;;;;;;4968979;28;20058;-61
2022/12/13 04:35:49;;;;;;;20.45;10.43;;;-1.90;99.90;;;;;;4969370;28;20078;-61
2022/12/13 04:38:16;;;;;;;16.17;9.38;;;-1.90;99.90;;;;;;4969473;28;20057;-61
2022/12/13 04:40:43;;;;;;;21.33;10.60;;;-1.80;99.90;;;;;;4969206;28;20146;-60
2022/12/13 04:43:09;;;;;;;18.30;8.57;;;-1.80;99.90;;;;;;4969648;28;20635;-61
2022/12/13 04:45:36;;;;;;;34.83;9.23;;;-1.80;99.90;;;;;;4968808;28;20047;-61
2022/12/13 04:48:03;;;;;;;20.98;10.43;;;-1.60;99.90;;;;;;4969165;28;20046;-61
2022/12/13 04:50:30;;;;;;;20.10;9.35;;;-1.80;99.90;;;;;;4967921;28;20051;-61
2022/12/13 04:52:57;;;;;;;17.42;9.75;;;-1.70;99.90;;;;;;4969418;28;20043;-61
2022/12/13 04:55:24;;;;;;;19.83;9.05;;;-1.70;99.90;;;;;;4968903;28;20057;-61
2022/12/13 04:57:50;;;;;;;20.50;10.45;;;-1.70;99.90;;;;;;4968525;28;20043;-60
2022/12/13 05:00:19;;;;;;;21.40;10.07;;;-1.70;99.90;;;;;;4957080;28;20101;-61
2022/12/13 05:02:45;;;;;;;22.23;9.82;;;-1.70;99.90;;;;;;4967210;28;20051;-61
2022/12/13 05:05:13;;;;;;;19.10;10.25;;;-1.70;99.90;;;;;;4969668;28;20418;-61
2022/12/13 05:07:40;;;;;;;19.92;9.57;;;-1.80;99.90;;;;;;4971192;28;20047;-61
2022/12/13 05:10:09;;;;;;;18.95;9.23;;;-1.70;99.90;;;;;;4972344;28;20406;-61
2022/12/13 05:12:36;;;;;;;18.63;9.85;;;-1.70;99.90;;;;;;4971868;28;20482;-60
2022/12/13 05:15:04;;;;;;;20.52;9.30;;;-1.70;99.90;;;;;;4972150;28;20129;-61
2022/12/13 05:17:30;;;;;;;17.90;8.77;;;-1.60;99.90;;;;;;4971936;28;20093;-61
2022/12/13 05:19:57;;;;;;;18.63;8.88;;;-1.60;99.90;;;;;;4971992;28;20157;-60
2022/12/13 05:22:24;;;;;;;16.67;8.38;;;-1.60;99.90;;;;;;4970762;28;20085;-61
2022/12/13 05:24:51;;;;;;;16.73;8.13;;;-1.60;99.90;;;;;;4972043;28;20046;-60
2022/12/13 05:27:18;;;;;;;14.88;8.63;;;-1.30;99.90;;;;;;4970463;28;20045;-62
2022/12/13 05:29:56;;;;;;;19.27;10.00;;;-1.60;99.90;;;;;;4970055;28;20101;-61
2022/12/13 05:32:32;;;;;;;17.00;8.23;;;-1.60;99.90;;;;;;4964886;28;20078;-61
2022/12/13 05:35:13;;;;;;;21.40;9.50;;;-1.50;99.90;;;;;;4971924;28;20514;-61
2022/12/13 05:37:53;;;;;;;16.48;9.18;;;-1.50;99.90;;;;;;4971580;28;20066;-61
2022/12/13 05:40:24;;;;;;;16.95;8.93;;;-1.50;99.90;;;;;;4971519;28;20526;-61
2022/12/13 05:42:51;;;;;;;15.80;7.22;;;-1.50;99.90;;;;;;4971379;28;20109;-61
2022/12/13 05:45:28;;;;;;;15.30;7.78;;;-1.50;99.90;;;;;;4971703;28;20046;-61
2022/12/13 05:47:54;;;;;;;14.95;7.85;;;-1.50;99.90;;;;;;4971776;28;20043;-61
2022/12/13 05:50:21;;;;;;;15.10;7.60;;;-1.40;99.90;;;;;;4971414;28;20380;-62
2022/12/13 05:52:48;;;;;;;20.15;8.55;;;-1.40;99.90;;;;;;4971203;28;20051;-61
2022/12/13 05:55:15;;;;;;;13.77;7.45;;;-1.40;99.90;;;;;;4971215;28;20135;-61
2022/12/13 05:57:42;;;;;;;17.05;6.90;;;-1.40;99.90;;;;;;4971348;28;20043;-61
2022/12/13 06:00:16;;;;;;;16.67;7.75;;;-1.40;99.90;;;;;;4967079;28;20058;-61
2022/12/13 06:02:57;;;;;;;16.13;8.02;;;-1.40;99.90;;;;;;4971201;28;20051;-61
2022/12/13 06:05:27;;;;;;;15.00;8.77;;;-1.40;99.90;;;;;;4967784;28;20055;-61
2022/12/13 06:07:54;;;;;;;17.33;7.35;;;-1.30;99.90;;;;;;4971509;28;20051;-61
2022/12/13 06:10:23;;;;;;;18.90;7.13;;;-1.30;99.90;;;;;;4971262;28;20106;-61
2022/12/13 06:13:00;;;;;;;15.00;7.95;;;-1.30;99.90;;;;;;4971202;28;20094;-61
2022/12/13 06:15:31;;;;;;;14.40;6.95;;;-1.40;99.90;;;;;;4970938;28;20078;-61
2022/12/13 06:18:00;;;;;;;15.93;7.22;;;-1.30;99.90;;;;;;4969965;28;20055;-60
2022/12/13 06:20:27;;;;;;;14.52;7.13;;;-1.30;99.90;;;;;;4970339;28;20139;-61
2022/12/13 06:22:54;;;;;;;17.35;8.75;;;-1.30;99.90;;;;;;4971002;28;20109;-60
2022/12/13 06:25:20;;;;;;;20.33;8.15;;;-1.30;99.90;;;;;;4970565;28;20051;-61
2022/12/13 06:27:58;;;;;;;17.88;8.15;;;-1.40;99.90;;;;;;4951576;29;20073;-59
2022/12/13 06:30:28;;;;;;;13.32;8.05;;;-1.40;99.90;;;;;;4964865;28;20050;-61
2022/12/13 06:32:55;;;;;;;16.55;8.07;;;-1.40;99.90;;;;;;4970826;28;20484;-60
2022/12/13 06:35:22;;;;;;;16.35;8.35;;;-1.40;99.90;;;;;;4969370;28;20456;-60
2022/12/13 06:37:56;;;;;;;17.05;8.52;;;-1.20;99.90;;;;;;4970397;28;20047;-60
2022/12/13 06:40:29;;;;;;;17.35;8.57;;;-1.40;99.90;;;;;;4965443;28;20043;-60
2022/12/13 06:42:56;;;;;;;11.82;6.18;;;-1.40;99.90;;;;;;4963606;28;20039;-61
2022/12/13 06:45:23;;;;;;;16.92;8.23;;;-1.30;99.90;;;;;;4960668;28;20089;-60
2022/12/13 06:47:50;;;;;;;14.68;8.43;;;-1.30;99.90;;;;;;4958038;28;20047;-61
2022/12/13 06:50:16;;;;;;;18.52;8.00;;;-1.30;99.90;;;;;;4959699;28;20077;-61
2022/12/13 06:52:45;;;;;;;20.55;10.05;;;-1.30;99.90;;;;;;4970494;28;20053;-61
2022/12/13 06:55:12;;;;;;;20.42;9.15;;;-1.30;99.90;;;;;;4970121;28;20134;-60
2022/12/13 06:57:39;;;;;;;16.02;8.85;;;-1.30;99.90;;;;;;4970141;28;20057;-61
2022/12/13 07:00:08;;;;;;;17.50;8.82;;;-1.30;99.90;;;;;;4969547;28;20410;-61
2022/12/13 07:02:35;;;;;;;17.63;9.50;;;-1.30;99.90;;;;;;4970116;28;20050;-60
2022/12/13 07:05:01;;;;;;;19.95;9.65;;;-1.30;99.90;;;;;;4969596;28;20055;-61
2022/12/13 07:07:29;;;;;;;17.27;8.70;;;-1.30;99.90;;;;;;4969695;28;20067;-61
2022/12/13 07:09:56;;;;;;;16.50;8.45;;;-1.30;99.90;;;;;;4970183;28;20080;-59
2022/12/13 07:12:23;;;;;;;22.05;8.85;;;-1.30;99.90;;;;;;4969518;28;20182;-60
2022/12/13 07:14:50;;;;;;;19.23;9.07;;;-1.30;99.90;;;;;;4967240;28;20093;-60
2022/12/13 07:17:17;;;;;;;20.80;9.77;;;-1.30;99.90;;;;;;4967377;28;20051;-60
2022/12/13 07:20:01;;;;;;;13.68;8.32;;;-1.30;99.90;;;;;;4969480;28;20470;-62
2022/12/13 07:22:28;;;;;;;19.25;9.38;;;-1.40;99.90;;;;;;4969071;28;20051;-61
2022/12/13 07:25:03;;;;;;;18.98;8.55;;;-1.40;99.90;;;;;;4970131;28;20054;-59
2022/12/13 07:27:30;;;;;;;16.85;8.55;;;-1.40;99.90;;;;;;4967983;28;20101;-61
2022/12/13 07:29:57;;;;;;;18.52;8.57;;;-1.40;99.90;;;;;;4956422;28;20111;-61
2022/12/13 07:32:24;;;;;;;17.13;8.82;;;-1.40;99.90;;;;;;4963171;28;20109;-61
2022/12/13 07:34:51;;;;;;;20.23;10.20;;;-1.40;99.90;;;;;;4968613;28;20055;-59
2022/12/13 07:37:18;;;;;;;20.98;9.07;;;-1.40;99.90;;;;;;4968918;28;20039;-60
2022/12/13 07:39:57;;;;;;;18.48;9.80;;;-1.40;99.90;;;;;;4968802;28;20141;-60
2022/12/13 07:42:29;;;;;;;18.85;9.00;;;-1.40;99.90;;;;;;4967447;28;20049;-61
2022/12/13 07:44:56;;;;;;;24.33;10.43;;;-1.30;99.90;;;;;;4968224;28;20062;-60
2022/12/13 07:47:28;;;;;;;18.00;9.32;;;-1.40;99.90;;;;;;4966817;28;20181;-61
2022/12/13 07:49:56;;;;;;;20.05;9.25;;;-1.40;99.90;;;;;;4983871;28;20105;-59
2022/12/13 07:52:22;;;;;;;18.35;8.70;;;-1.30;99.90;;;;;;4968041;28;20082;-60
2022/12/13 07:54:49;;;;;;;20.38;9.27;;;-1.30;99.90;;;;;;4969650;28;20046;-59
2022/12/13 07:57:19;;;;;;;16.83;7.50;;;-1.20;99.90;;;;;;4968608;28;20055;-59
2022/12/13 07:59:45;;;;;;;16.88;7.60;;;-1.30;99.90;;;;;;4969257;28;20074;-60
2022/12/13 08:02:12;;;;;;;21.20;8.73;;;-1.30;99.90;;;;;;4968531;28;20134;-60
2022/12/13 08:04:41;;;;;;;18.65;9.15;;;-1.30;99.90;;;;;;4967998;28;20806;-60
2022/12/13 08:07:08;;;;;;;16.13;8.07;;;-1.30;99.90;;;;;;4967879;28;20065;-60
2022/12/13 08:09:35;;;;;;;18.35;8.55;;;-1.20;99.90;;;;;;4968751;28;20047;-71
2022/12/13 08:12:04;;;;;;;16.95;8.63;;;-1.30;99.90;;;;;;4956199;28;20071;-61
2022/12/13 08:14:30;;;;;;;17.92;8.40;;;-1.30;99.90;;;;;;4968942;28;20090;-61
2022/12/13 08:16:57;;;;;;;17.48;8.82;;;-1.30;99.90;;;;;;4969007;28;20097;-62
2022/12/13 08:19:24;;;;;;;23.70;9.05;;;-1.20;99.90;;;;;;4961367;28;20063;-61
2022/12/13 08:21:51;;;;;;;17.80;8.65;;;-1.20;99.90;;;;;;4954146;28;20138;-61
2022/12/13 08:24:25;;;;;;;18.90;10.05;;;-1.20;99.90;;;;;;4965366;28;20047;-59
2022/12/13 08:26:52;;;;;;;17.80;9.20;;;-1.20;99.90;;;;;;4967606;28;20065;-60
2022/12/13 08:29:19;;;;;;;19.45;8.05;;;-1.20;99.90;;;;;;4962837;28;20126;-58
2022/12/13 08:32:05;;;;;;;15.13;7.82;;;-1.20;99.90;;;;;;4968557;28;20047;-60
2022/12/13 08:34:32;;;;;;;13.15;7.60;;;-1.20;99.90;;;;;;4967305;28;20379;-59
2022/12/13 08:36:59;;;;;;;19.70;8.80;;;-1.20;99.90;;;;;;4968912;28;20057;-59
2022/12/13 08:39:29;;;;;;;18.35;8.05;;;-1.20;99.90;;;;;;4968546;28;20571;-62
2022/12/13 08:42:01;;;;;;;13.65;7.95;;;-1.00;99.90;;;;;;4968449;28;20089;-61
2022/12/13 08:44:41;;;;;;;19.98;7.72;;;-1.10;99.90;;;;;;4971426;28;20053;-60
2022/12/13 08:47:08;;;;;;;14.25;7.55;;;-1.10;99.90;;;;;;4972178;28;20093;-59
2022/12/13 08:49:35;;;;;;;15.65;7.60;;;-0.90;99.90;;;;;;4972232;28;20075;-61
2022/12/13 08:52:02;;;;;;;15.60;7.88;;;-1.10;99.90;;;;;;4971201;28;20047;-54
2022/12/13 08:54:32;;;;;;;19.35;8.43;;;-1.10;99.90;;;;;;4972143;28;20058;-62
2022/12/13 08:56:58;;;;;;;15.38;8.05;;;-1.00;99.90;;;;;;4970936;28;20138;-59
2022/12/13 08:59:25;;;;;;;21.58;7.32;;;-1.00;99.90;;;;;;4971130;28;20198;-59
2022/12/13 09:01:52;;;;;;;17.70;9.30;;;-1.00;99.90;;;;;;4971565;28;20093;-61
2022/12/13 09:04:21;;;;;;;18.55;8.45;;;-1.00;99.90;;;;;;4972159;28;20054;-59
2022/12/13 09:06:57;;;;;;;20.88;9.18;;;-0.90;99.90;;;;;;4961880;28;20054;-61
2022/12/13 09:09:28;;;;;;;15.57;8.45;;;-0.90;99.90;;;;;;4972333;28;20129;-60
2022/12/13 09:11:55;;;;;;;16.35;7.97;;;-0.80;99.90;;;;;;4972403;28;20101;-60
2022/12/13 09:14:26;;;;;;;16.30;8.45;;;-0.80;99.90;;;;;;4970625;28;20061;-60
2022/12/13 09:17:01;;;;;;;18.95;8.63;;;-0.80;99.90;;;;;;4971367;28;20043;-60
2022/12/13 09:19:29;;;;;;;14.60;7.78;;;-0.80;99.90;;;;;;4970597;28;20055;-60
2022/12/13 09:22:03;;;;;;;;;;;-0.70;99.90;;;;;;4967384;28;20043;-61
2022/12/13 09:24:30;;;;;;;16.42;7.80;;;-0.70;99.90;;;;;;4970456;28;20304;-59
2022/12/13 09:27:03;;;;;;;17.27;8.95;;;-0.70;99.90;;;;;;4970010;28;20075;-61
2022/12/13 09:29:36;;;;;;;25.60;9.32;;;-0.60;99.90;;;;;;4969424;28;20047;-61
2022/12/13 09:32:03;;;;;;;16.60;8.32;;;-0.60;99.90;;;;;;4970048;28;20161;-60
2022/12/13 09:34:31;;;;;;;16.88;7.95;;;-0.60;99.90;;;;;;4971303;28;20043;-60
2022/12/13 09:36:58;;;;;;;14.52;7.95;;;-0.50;99.90;;;;;;4971530;28;20454;-60
2022/12/13 09:39:28;;;;;;;19.15;8.65;;;-0.50;99.90;;;;;;4971693;28;20117;-59
2022/12/13 09:41:57;;;;;;;17.58;8.35;;;-0.40;99.90;;;;;;4971323;28;20315;-61
2022/12/13 09:44:28;;;;;;;21.85;9.32;;;-0.50;99.90;;;;;;4957718;28;20051;-60
2022/12/13 09:47:12;;;;;;;19.65;9.98;;;-0.40;99.90;;;;;;4966469;28;20055;-61
2022/12/13 09:49:43;;;;;;;21.90;10.68;;;-0.30;99.90;;;;;;4950839;29;20051;-60
2022/12/13 09:52:20;;;;;;;13.05;7.28;;;-0.30;99.90;;;;;;4965611;28;20078;-61
2022/12/13 09:54:49;;;;;;;17.63;8.85;;;-0.20;99.90;;;;;;4969053;28;20371;-59
2022/12/13 09:57:28;;;;;;;17.52;8.55;;;-0.20;99.90;;;;;;4970097;28;20085;-61
2022/12/13 09:59:57;;;;;;;16.42;8.95;;;-0.20;99.90;;;;;;4968889;28;20051;-60
2022/12/13 10:02:28;;;;;;;19.05;8.15;;;0.10;99.90;;;;;;4970884;28;20465;-59
2022/12/13 10:05:30;;;;;;;20.55;7.90;;;-0.10;99.90;;;;;;4969972;28;20086;-60
2022/12/13 10:08:11;;;;;;;12.90;7.55;;;0.00;99.90;;;;;;4970974;28;20050;-59
2022/12/13 10:10:37;;;;;;;19.98;8.80;;;0.00;99.90;;;;;;4970047;28;20134;-59
2022/12/13 10:13:33;;;;;;;13.45;7.43;;;0.10;99.90;;;;;;4968385;28;20078;-61
2022/12/13 10:16:03;;;;;;;16.83;8.10;;;0.10;99.90;;;;;;4986275;28;20102;-60
2022/12/13 10:18:33;;;;;;;15.95;7.45;;;0.10;99.90;;;;;;4960872;28;20078;-59
2022/12/13 10:21:02;;;;;;;13.57;6.47;;;0.20;99.90;;;;;;4970785;28;20141;-57
2022/12/13 10:23:29;;;;;;;15.18;7.45;;;0.20;99.90;;;;;;4969582;28;20074;-60
2022/12/13 10:26:15;;;;;;;17.38;7.32;;;0.30;99.90;;;;;;4970911;28;20053;-62
2022/12/13 10:28:50;;;;;;;17.13;7.68;;;0.30;99.90;;;;;;4970447;28;20482;-59
2022/12/13 10:31:18;;;;;;;18.42;7.97;;;0.00;99.90;;;;;;4969588;28;20078;-61
2022/12/13 10:33:53;;;;;;;15.25;7.90;;;0.40;99.90;;;;;;4969267;28;20105;-59
2022/12/13 10:36:50;;;;;;;22.20;6.60;;;0.50;99.90;;;;;;4969559;28;20134;-61
2022/12/13 10:39:40;;;;;;;13.38;6.50;;;0.50;99.90;;;;;;4953762;28;20074;-60
2022/12/13 10:42:14;;;;;;;13.38;6.70;;;0.50;99.90;;;;;;4970872;28;20047;-61
2022/12/13 10:44:53;;;;;;;18.50;6.45;;;0.40;99.90;;;;;;4957551;28;20470;-58
2022/12/13 10:47:21;;;;;;;15.07;7.60;;;0.40;99.90;;;;;;4950943;28;20114;-60
2022/12/13 10:49:58;;;;;;;18.17;6.90;;;0.50;99.90;;;;;;4969222;28;20137;-59
2022/12/13 10:52:28;;;;;;;17.13;7.60;;;0.50;99.90;;;;;;4969364;28;20487;-60
2022/12/13 10:55:02;;;;;;;13.27;6.88;;;0.50;99.90;;;;;;4969222;28;20482;-60
2022/12/13 10:57:28;;;;;;;11.13;6.38;;;0.50;99.90;;;;;;4969422;28;20075;-59
2022/12/13 10:59:55;;;;;;;14.63;7.57;;;0.50;99.90;;;;;;4968676;28;20133;-60
2022/12/13 11:02:35;;;;;;;18.75;7.50;;;0.50;99.90;;;;;;4960724;28;20055;-59
2022/12/13 11:05:28;;;;;;;19.08;7.03;;;0.50;99.90;;;;;;4968530;28;20131;-60
2022/12/13 11:07:55;;;;;;;11.18;6.47;;;0.50;99.90;;;;;;4970002;28;20047;-58
2022/12/13 11:10:27;;;;;;;16.98;7.35;;;0.60;99.90;;;;;;4967444;28;20039;-59
2022/12/13 11:13:04;;;;;;;19.60;7.57;;;0.60;99.90;;;;;;4970312;28;20050;-60
2022/12/13 11:15:32;;;;;;;17.05;7.47;;;0.70;99.90;;;;;;4967628;28;20471;-57
2022/12/13 11:18:03;;;;;;;11.55;7.05;;;0.60;99.90;;;;;;4969947;28;20201;-58
2022/12/13 11:20:37;;;;;;;14.73;6.88;;;0.70;99.90;;;;;;4969679;28;20121;-59
2022/12/13 11:23:19;;;;;;;15.55;8.13;;;0.70;99.90;;;;;;4968740;28;20051;-60
2022/12/13 11:25:45;;;;;;;18.50;8.00;;;0.70;99.90;;;;;;4968766;28;20050;-59
2022/12/13 11:28:18;;;;;;;12.93;6.45;;;0.70;99.90;;;;;;4968460;28;20157;-59
2022/12/13 11:31:21;;;;;;;14.45;8.10;;;0.80;99.90;;;;;;4969479;28;20192;-59
2022/12/13 11:34:09;;;;;;;16.17;7.65;;;0.80;99.90;;;;;;4969697;28;20138;-60
2022/12/13 11:37:05;;;;;;;12.15;6.35;;;0.80;99.90;;;;;;4969630;28;20049;-59
2022/12/13 11:39:47;;;;;;;20.45;8.20;;;0.90;99.90;;;;;;4968211;28;20054;-60
2022/12/13 11:42:27;;;;;;;18.55;7.30;;;1.00;99.90;;;;;;4970352;28;20495;-62
2022/12/13 11:45:10;;;;;;;12.38;7.57;;;1.00;99.90;;;;;;4966694;28;20047;-60
2022/12/13 11:48:03;;;;;;;17.45;7.63;;;1.00;99.90;;;;;;4968595;28;20070;-60
2022/12/13 11:50:35;;;;;;;16.17;7.20;;;1.10;99.90;;;;;;4968182;28;20307;-60
2022/12/13 11:53:29;;;;;;;15.18;7.32;;;1.10;99.90;;;;;;4968460;28;20093;-60
2022/12/13 11:56:05;;;;;;;12.85;6.70;;;1.10;99.90;;;;;;4966660;28;20101;-61
2022/12/13 11:59:04;;;;;;;19.25;7.93;;;1.10;99.90;;;;;;4968397;28;20134;-59
2022/12/13 12:01:49;;;;;;;19.02;8.30;;;1.10;99.90;;;;;;4968138;28;20059;-61
2022/12/13 12:04:47;;;;;;;15.15;7.28;;;1.10;99.90;;;;;;4968047;28;20396;-60
2022/12/13 12:07:27;;;;;;;12.07;6.93;;;1.10;99.90;;;;;;4967657;28;20050;-61
2022/12/13 12:10:27;;;;;;;14.98;7.18;;;1.10;99.90;;;;;;4969729;28;20079;-59
2022/12/13 12:13:00;;;;;;;;;;;1.10;99.90;;;;;;4957810;28;20098;-57
2022/12/13 12:15:33;;;;;;;16.23;7.10;;;1.10;99.90;;;;;;4979429;28;20508;-58
2022/12/13 12:18:14;;;;;;;16.70;7.97;;;1.20;99.90;;;;;;4971957;28;20526;-58
2022/12/13 12:20:59;;;;;;;13.43;7.53;;;1.20;99.90;;;;;;4971592;28;20094;-58
2022/12/13 12:23:45;;;;;;;15.18;7.88;;;1.20;99.90;;;;;;4972017;28;20133;-58
2022/12/13 12:26:21;;;;;;;13.57;6.88;;;1.20;99.90;;;;;;4960882;28;20051;-60
2022/12/13 12:29:05;;;;;;;14.88;7.38;;;1.20;99.90;;;;;;4972270;28;20051;-59
2022/12/13 12:32:00;;;;;;;15.98;8.20;;;1.20;99.90;;;;;;4971565;28;20072;-58
2022/12/13 12:34:37;;;;;;;14.52;8.93;;;1.20;99.90;;;;;;4960124;28;20110;-59
2022/12/13 12:37:13;;;;;;;16.83;8.35;;;1.20;99.90;;;;;;4962737;28;20130;-59
2022/12/13 12:39:42;;;;;;;20.90;8.75;;;1.20;99.90;;;;;;4972059;28;20130;-58
2022/12/13 12:42:27;;;;;;;16.70;8.02;;;1.20;99.90;;;;;;4973138;28;20090;-60
2022/12/13 12:45:09;;;;;;;14.85;7.55;;;1.20;99.90;;;;;;4966528;28;20131;-60
2022/12/13 12:47:54;;;;;;;15.55;7.20;;;1.20;99.90;;;;;;4967594;28;20053;-59
2022/12/13 12:50:41;;;;;;;15.95;7.50;;;1.20;99.90;;;;;;4954667;29;20049;-60
2022/12/13 12:53:15;;;;;;;20.23;8.95;;;1.30;99.90;;;;;;4968925;28;20109;-60
2022/12/13 12:56:00;;;;;;;16.85;8.48;;;1.70;99.90;;;;;;4972482;28;20043;-59
2022/12/13 12:58:41;;;;;;;16.05;7.90;;;1.30;99.90;;;;;;4973891;28;20163;-60
2022/12/13 13:01:09;;;;;;;17.98;8.68;;;1.30;99.90;;;;;;4973779;28;20051;-60
2022/12/13 13:03:37;;;;;;;14.52;7.65;;;1.30;99.90;;;;;;4972938;28;20058;-59